sensor_id;sensor_type;location;lat;lon;timestamp;pressure;altitude;pressure_sealevel;temperature;humidity
2188;BME280;1100;52.014;8.540;2023-08-30T00:00:51;99459.13;;;11.94;81.24
2188;BME280;1100;52.014;8.540;2023-08-30T00:03:16;99446.75;;;11.95;81.27
2188;BME280;1100;52.014;8.540;2023-08-30T00:05:42;99458.19;;;11.97;81.12
2188;BME280;1100;52.014;8.540;2023-08-30T00:08:07;99464.22;;;11.95;81.04
2188;BME280;1100;52.014;8.540;2023-08-30T00:10:33;99453.53;;;11.94;81.04
2188;BME280;1100;52.014;8.540;2023-08-30T00:12:58;99457.25;;;11.91;81.13
2188;BME280;1100;52.014;8.540;2023-08-30T00:15:24;99458.19;;;11.88;81.10
2188;BME280;1100;52.014;8.540;2023-08-30T00:17:49;99454.19;;;11.89;81.18
2188;BME280;1100;52.014;8.540;2023-08-30T00:20:16;99456.34;;;11.94;81.51
2188;BME280;1100;52.014;8.540;2023-08-30T00:22:42;99460.34;;;12.02;81.50
2188;BME280;1100;52.014;8.540;2023-08-30T00:25:08;99451.41;;;12.07;81.65
2188;BME280;1100;52.014;8.540;2023-08-30T00:27:33;99453.88;;;12.15;81.60
2188;BME280;1100;52.014;8.540;2023-08-30T00:29:58;99448.47;;;12.20;81.64
2188;BME280;1100;52.014;8.540;2023-08-30T00:32:23;99448.28;;;12.24;81.63
2188;BME280;1100;52.014;8.540;2023-08-30T00:34:51;99447.06;;;12.25;81.45
2188;BME280;1100;52.014;8.540;2023-08-30T00:37:17;99439.94;;;12.24;81.38
2188;BME280;1100;52.014;8.540;2023-08-30T00:39:43;99444.56;;;12.27;81.64
2188;BME280;1100;52.014;8.540;2023-08-30T00:42:08;99435.47;;;12.27;81.41
2188;BME280;1100;52.014;8.540;2023-08-30T00:44:34;99437.47;;;12.26;81.24
2188;BME280;1100;52.014;8.540;2023-08-30T00:47:01;99444.75;;;12.24;81.26
2188;BME280;1100;52.014;8.540;2023-08-30T00:49:26;99430.66;;;12.18;81.26
2188;BME280;1100;52.014;8.540;2023-08-30T00:51:52;99435.31;;;12.12;81.37
2188;BME280;1100;52.014;8.540;2023-08-30T00:54:19;99435.03;;;12.10;81.49
2188;BME280;1100;52.014;8.540;2023-08-30T00:56:44;99429.44;;;12.10;81.48
2188;BME280;1100;52.014;8.540;2023-08-30T00:59:10;99429.44;;;12.10;81.49
2188;BME280;1100;52.014;8.540;2023-08-30T01:01:35;99438.56;;;12.10;81.64
2188;BME280;1100;52.014;8.540;2023-08-30T01:04:01;99433.47;;;12.08;81.60
2188;BME280;1100;52.014;8.540;2023-08-30T01:06:27;99424.94;;;12.12;81.57
2188;BME280;1100;52.014;8.540;2023-08-30T01:08:52;99426.19;;;12.11;81.56
2188;BME280;1100;52.014;8.540;2023-08-30T01:11:41;99421.38;;;12.12;81.56
2188;BME280;1100;52.014;8.540;2023-08-30T01:14:21;99419.22;;;12.16;81.73
2188;BME280;1100;52.014;8.540;2023-08-30T01:16:48;99418.56;;;12.21;81.85
2188;BME280;1100;52.014;8.540;2023-08-30T01:22:02;99416.25;;;12.29;81.82
2188;BME280;1100;52.014;8.540;2023-08-30T01:24:55;99412.22;;;12.30;81.64
2188;BME280;1100;52.014;8.540;2023-08-30T01:27:23;99411.75;;;12.31;81.86
2188;BME280;1100;52.014;8.540;2023-08-30T01:29:50;99409.59;;;12.36;81.85
2188;BME280;1100;52.014;8.540;2023-08-30T01:32:19;99405.53;;;12.37;81.88
2188;BME280;1100;52.014;8.540;2023-08-30T01:34:46;99400.28;;;12.39;81.72
2188;BME280;1100;52.014;8.540;2023-08-30T01:37:13;99408.97;;;12.41;81.91
2188;BME280;1100;52.014;8.540;2023-08-30T01:39:40;99412.66;;;12.47;81.85
2188;BME280;1100;52.014;8.540;2023-08-30T01:42:07;99405.34;;;12.50;81.80
2188;BME280;1100;52.014;8.540;2023-08-30T01:44:34;99408.91;;;12.60;82.08
2188;BME280;1100;52.014;8.540;2023-08-30T01:47:00;99401.59;;;12.62;81.93
2188;BME280;1100;52.014;8.540;2023-08-30T01:49:29;99412.88;;;12.68;82.04
2188;BME280;1100;52.014;8.540;2023-08-30T01:51:57;99408.38;;;12.70;81.88
2188;BME280;1100;52.014;8.540;2023-08-30T01:54:23;99413.50;;;12.72;81.89
2188;BME280;1100;52.014;8.540;2023-08-30T01:56:49;99413.03;;;12.74;81.94
2188;BME280;1100;52.014;8.540;2023-08-30T01:59:14;99413.78;;;12.74;81.73
2188;BME280;1100;52.014;8.540;2023-08-30T02:01:40;99408.19;;;12.74;81.74
2188;BME280;1100;52.014;8.540;2023-08-30T02:04:05;99395.03;;;12.75;81.70
2188;BME280;1100;52.014;8.540;2023-08-30T02:06:46;99396.56;;;12.76;82.00
2188;BME280;1100;52.014;8.540;2023-08-30T02:09:20;99412.56;;;12.75;81.94
2188;BME280;1100;52.014;8.540;2023-08-30T02:11:48;99401.09;;;12.73;81.75
2188;BME280;1100;52.014;8.540;2023-08-30T02:14:17;99399.56;;;12.72;81.84
2188;BME280;1100;52.014;8.540;2023-08-30T02:16:44;99402.81;;;12.70;81.93
2188;BME280;1100;52.014;8.540;2023-08-30T02:19:11;99404.03;;;12.69;81.77
2188;BME280;1100;52.014;8.540;2023-08-30T02:21:37;99394.91;;;12.69;81.69
2188;BME280;1100;52.014;8.540;2023-08-30T02:24:02;99393.34;;;12.68;81.86
2188;BME280;1100;52.014;8.540;2023-08-30T02:26:28;99398.94;;;12.68;82.01
2188;BME280;1100;52.014;8.540;2023-08-30T02:28:53;99395.19;;;12.71;82.04
2188;BME280;1100;52.014;8.540;2023-08-30T02:31:18;99404.50;;;12.68;81.75
2188;BME280;1100;52.014;8.540;2023-08-30T02:33:44;99400.19;;;12.67;81.77
2188;BME280;1100;52.014;8.540;2023-08-30T02:36:09;99408.06;;;12.68;81.86
2188;BME280;1100;52.014;8.540;2023-08-30T02:38:35;99402.97;;;12.67;81.80
2188;BME280;1100;52.014;8.540;2023-08-30T02:41:01;99402.66;;;12.65;81.76
2188;BME280;1100;52.014;8.540;2023-08-30T02:43:26;99405.16;;;12.63;81.67
2188;BME280;1100;52.014;8.540;2023-08-30T02:45:51;99393.38;;;12.58;81.73
2188;BME280;1100;52.014;8.540;2023-08-30T02:48:17;99395.13;;;12.56;81.75
2188;BME280;1100;52.014;8.540;2023-08-30T02:50:42;99392.50;;;12.52;81.81
2188;BME280;1100;52.014;8.540;2023-08-30T02:53:08;99390.63;;;12.49;81.72
2188;BME280;1100;52.014;8.540;2023-08-30T02:55:34;99387.56;;;12.47;81.85
2188;BME280;1100;52.014;8.540;2023-08-30T02:57:59;99385.72;;;12.44;81.86
2188;BME280;1100;52.014;8.540;2023-08-30T03:00:25;99385.41;;;12.42;81.94
2188;BME280;1100;52.014;8.540;2023-08-30T03:02:50;99382.50;;;12.36;81.88
2188;BME280;1100;52.014;8.540;2023-08-30T03:05:15;99385.75;;;12.35;81.80
2188;BME280;1100;52.014;8.540;2023-08-30T03:07:41;99384.38;;;12.30;82.01
2188;BME280;1100;52.014;8.540;2023-08-30T03:10:07;99385.78;;;12.25;81.89
2188;BME280;1100;52.014;8.540;2023-08-30T03:12:33;99382.34;;;12.21;81.87
2188;BME280;1100;52.014;8.540;2023-08-30T03:14:58;99376.97;;;12.17;81.71
2188;BME280;1100;52.014;8.540;2023-08-30T03:17:23;99379.13;;;12.13;81.92
2188;BME280;1100;52.014;8.540;2023-08-30T03:19:51;99379.00;;;12.07;81.86
2188;BME280;1100;52.014;8.540;2023-08-30T03:22:18;99378.38;;;12.03;81.78
2188;BME280;1100;52.014;8.540;2023-08-30T03:24:43;99376.66;;;11.96;81.95
2188;BME280;1100;52.014;8.540;2023-08-30T03:27:08;99384.69;;;11.94;81.94
2188;BME280;1100;52.014;8.540;2023-08-30T03:29:34;99381.59;;;11.92;82.21
2188;BME280;1100;52.014;8.540;2023-08-30T03:31:59;99387.03;;;11.96;82.26
2188;BME280;1100;52.014;8.540;2023-08-30T03:34:24;99381.13;;;11.94;82.17
2188;BME280;1100;52.014;8.540;2023-08-30T03:36:49;99387.50;;;11.94;82.24
2188;BME280;1100;52.014;8.540;2023-08-30T03:39:22;99384.69;;;11.94;82.30
2188;BME280;1100;52.014;8.540;2023-08-30T03:41:49;99379.91;;;11.95;82.20
2188;BME280;1100;52.014;8.540;2023-08-30T03:44:14;99384.25;;;11.96;82.37
2188;BME280;1100;52.014;8.540;2023-08-30T03:46:40;99380.66;;;11.95;82.33
2188;BME280;1100;52.014;8.540;2023-08-30T03:49:05;99380.66;;;11.95;82.33
2188;BME280;1100;52.014;8.540;2023-08-30T03:51:30;99384.38;;;11.92;82.33
2188;BME280;1100;52.014;8.540;2023-08-30T03:53:56;99385.78;;;11.88;82.16
2188;BME280;1100;52.014;8.540;2023-08-30T03:56:22;99379.47;;;11.87;82.28
2188;BME280;1100;52.014;8.540;2023-08-30T03:58:47;99375.56;;;11.84;82.37
2188;BME280;1100;52.014;8.540;2023-08-30T04:01:12;99379.00;;;11.79;82.18
2188;BME280;1100;52.014;8.540;2023-08-30T04:03:38;99376.06;;;11.74;82.15
2188;BME280;1100;52.014;8.540;2023-08-30T04:06:03;99379.00;;;11.70;82.27
2188;BME280;1100;52.014;8.540;2023-08-30T04:08:28;99381.16;;;11.66;82.15
2188;BME280;1100;52.014;8.540;2023-08-30T04:10:54;99377.44;;;11.59;82.13
2188;BME280;1100;52.014;8.540;2023-08-30T04:13:19;99375.59;;;11.56;82.27
2188;BME280;1100;52.014;8.540;2023-08-30T04:15:45;99378.56;;;11.53;82.25
2188;BME280;1100;52.014;8.540;2023-08-30T04:18:10;99369.56;;;11.49;82.19
2188;BME280;1100;52.014;8.540;2023-08-30T04:20:35;99370.81;;;11.48;82.33
2188;BME280;1100;52.014;8.540;2023-08-30T04:23:01;99375.59;;;11.47;82.17
2188;BME280;1100;52.014;8.540;2023-08-30T04:25:28;99364.16;;;11.45;82.34
2188;BME280;1100;52.014;8.540;2023-08-30T04:27:54;99369.88;;;11.41;82.32
2188;BME280;1100;52.014;8.540;2023-08-30T04:30:19;99367.56;;;11.40;82.53
2188;BME280;1100;52.014;8.540;2023-08-30T04:32:44;99366.47;;;11.37;82.43
2188;BME280;1100;52.014;8.540;2023-08-30T04:35:10;99358.59;;;11.36;82.50
2188;BME280;1100;52.014;8.540;2023-08-30T04:37:35;99364.91;;;11.36;82.36
2188;BME280;1100;52.014;8.540;2023-08-30T04:40:03;99363.06;;;11.33;82.49
2188;BME280;1100;52.014;8.540;2023-08-30T04:42:29;99368.16;;;11.34;82.54
2188;BME280;1100;52.014;8.540;2023-08-30T04:44:54;99363.38;;;11.35;82.59
2188;BME280;1100;52.014;8.540;2023-08-30T04:47:21;99364.16;;;11.36;82.73
2188;BME280;1100;52.014;8.540;2023-08-30T04:49:50;99370.03;;;11.38;82.68
2188;BME280;1100;52.014;8.540;2023-08-30T04:52:16;99356.88;;;11.38;82.67
2188;BME280;1100;52.014;8.540;2023-08-30T04:54:42;99367.25;;;11.38;82.61
2188;BME280;1100;52.014;8.540;2023-08-30T04:57:08;99356.88;;;11.38;82.68
2188;BME280;1100;52.014;8.540;2023-08-30T04:59:35;99358.59;;;11.36;82.59
2188;BME280;1100;52.014;8.540;2023-08-30T05:02:00;99352.41;;;11.41;82.93
2188;BME280;1100;52.014;8.540;2023-08-30T05:04:26;99354.25;;;11.44;82.86
2188;BME280;1100;52.014;8.540;2023-08-30T05:06:51;99341.44;;;11.46;82.70
2188;BME280;1100;52.014;8.540;2023-08-30T05:09:17;99348.69;;;11.53;82.97
2188;BME280;1100;52.014;8.540;2023-08-30T05:11:42;99348.06;;;11.58;83.02
2188;BME280;1100;52.014;8.540;2023-08-30T05:14:07;99354.88;;;11.67;83.05
2188;BME280;1100;52.014;8.540;2023-08-30T05:16:37;99353.78;;;11.74;83.18
2188;BME280;1100;52.014;8.540;2023-08-30T05:19:03;99349.91;;;11.80;83.29
2188;BME280;1100;52.014;8.540;2023-08-30T05:21:28;99351.63;;;11.87;83.14
2188;BME280;1100;52.014;8.540;2023-08-30T05:23:53;99348.19;;;11.92;83.35
2188;BME280;1100;52.014;8.540;2023-08-30T05:26:19;99344.00;;;11.97;83.01
2188;BME280;1100;52.014;8.540;2023-08-30T05:28:44;99347.72;;;12.03;83.33
2188;BME280;1100;52.014;8.540;2023-08-30T05:31:09;99344.31;;;12.08;83.37
2188;BME280;1100;52.014;8.540;2023-08-30T05:33:35;99344.47;;;12.14;83.36
2188;BME280;1100;52.014;8.540;2023-08-30T05:36:00;99347.88;;;12.18;83.35
2188;BME280;1100;52.014;8.540;2023-08-30T05:38:26;99340.56;;;12.21;83.27
2188;BME280;1100;52.014;8.540;2023-08-30T05:40:51;99334.84;;;12.25;83.18
2188;BME280;1100;52.014;8.540;2023-08-30T05:43:16;99329.28;;;12.25;83.30
2188;BME280;1100;52.014;8.540;2023-08-30T05:45:43;99324.47;;;12.25;83.25
2188;BME280;1100;52.014;8.540;2023-08-30T05:48:08;99326.00;;;12.26;83.01
2188;BME280;1100;52.014;8.540;2023-08-30T05:50:33;99321.22;;;12.27;83.17
2188;BME280;1100;52.014;8.540;2023-08-30T05:52:59;99318.44;;;12.27;83.18
2188;BME280;1100;52.014;8.540;2023-08-30T05:55:24;99322.75;;;12.28;83.05
2188;BME280;1100;52.014;8.540;2023-08-30T05:57:49;99323.06;;;12.30;83.15
2188;BME280;1100;52.014;8.540;2023-08-30T06:00:15;99319.03;;;12.31;83.18
2188;BME280;1100;52.014;8.540;2023-08-30T06:02:41;99319.34;;;12.33;83.22
2188;BME280;1100;52.014;8.540;2023-08-30T06:05:06;99318.88;;;12.35;83.07
2188;BME280;1100;52.014;8.540;2023-08-30T06:07:32;99314.84;;;12.36;83.03
2188;BME280;1100;52.014;8.540;2023-08-30T06:10:02;99317.63;;;12.36;83.04
2188;BME280;1100;52.014;8.540;2023-08-30T06:12:27;99305.69;;;12.35;83.00
2188;BME280;1100;52.014;8.540;2023-08-30T06:14:53;99302.91;;;12.35;83.28
2188;BME280;1100;52.014;8.540;2023-08-30T06:17:19;99307.53;;;12.38;83.21
2188;BME280;1100;52.014;8.540;2023-08-30T06:19:45;99305.38;;;12.42;83.18
2188;BME280;1100;52.014;8.540;2023-08-30T06:22:11;99300.53;;;12.43;83.17
2188;BME280;1100;52.014;8.540;2023-08-30T06:24:36;99306.91;;;12.43;83.23
2188;BME280;1100;52.014;8.540;2023-08-30T06:27:01;99308.28;;;12.48;83.34
2188;BME280;1100;52.014;8.540;2023-08-30T06:29:27;99303.28;;;12.52;83.33
2188;BME280;1100;52.014;8.540;2023-08-30T06:31:52;99304.97;;;12.59;83.30
2188;BME280;1100;52.014;8.540;2023-08-30T06:34:18;99294.72;;;12.65;83.23
2188;BME280;1100;52.014;8.540;2023-08-30T06:36:43;99295.13;;;12.73;83.55
2188;BME280;1100;52.014;8.540;2023-08-30T06:39:08;99292.94;;;12.77;83.15
2188;BME280;1100;52.014;8.540;2023-08-30T06:41:33;99295.06;;;12.82;83.22
2188;BME280;1100;52.014;8.540;2023-08-30T06:43:59;99287.59;;;12.89;83.07
2188;BME280;1100;52.014;8.540;2023-08-30T06:46:24;99288.97;;;12.93;83.20
2188;BME280;1100;52.014;8.540;2023-08-30T06:48:50;99292.94;;;13.02;83.13
2188;BME280;1100;52.014;8.540;2023-08-30T06:51:15;99286.19;;;13.08;83.17
2188;BME280;1100;52.014;8.540;2023-08-30T06:53:40;99289.88;;;13.15;83.17
2188;BME280;1100;52.014;8.540;2023-08-30T06:56:06;99296.34;;;13.21;83.26
2188;BME280;1100;52.014;8.540;2023-08-30T06:58:31;99296.25;;;13.30;83.36
2188;BME280;1100;52.014;8.540;2023-08-30T07:00:57;99298.13;;;13.33;83.11
2188;BME280;1100;52.014;8.540;2023-08-30T07:03:23;99299.97;;;13.37;83.23
2188;BME280;1100;52.014;8.540;2023-08-30T07:05:53;99293.41;;;13.40;83.11
2188;BME280;1100;52.014;8.540;2023-08-30T07:08:18;99299.56;;;13.44;83.25
2188;BME280;1100;52.014;8.540;2023-08-30T07:10:44;99295.53;;;13.45;83.10
2188;BME280;1100;52.014;8.540;2023-08-30T07:13:09;99295.69;;;13.51;83.10
2188;BME280;1100;52.014;8.540;2023-08-30T07:15:41;99295.78;;;13.56;83.07
2188;BME280;1100;52.014;8.540;2023-08-30T07:18:08;99297.31;;;13.57;82.99
2188;BME280;1100;52.014;8.540;2023-08-30T07:20:35;99297.31;;;13.57;83.00
2188;BME280;1100;52.014;8.540;2023-08-30T07:23:02;99287.31;;;13.66;83.24
2188;BME280;1100;52.014;8.540;2023-08-30T07:25:27;99289.22;;;13.75;83.21
2188;BME280;1100;52.014;8.540;2023-08-30T07:27:52;99291.75;;;13.88;83.25
2188;BME280;1100;52.014;8.540;2023-08-30T07:30:18;99284.53;;;13.96;83.04
2188;BME280;1100;52.014;8.540;2023-08-30T07:32:43;99292.50;;;14.03;83.18
2188;BME280;1100;52.014;8.540;2023-08-30T07:35:09;99288.75;;;14.06;82.97
2188;BME280;1100;52.014;8.540;2023-08-30T07:37:35;99279.00;;;14.17;82.82
2188;BME280;1100;52.014;8.540;2023-08-30T07:40:01;99272.91;;;14.33;82.78
2188;BME280;1100;52.014;8.540;2023-08-30T07:42:26;99275.50;;;14.58;82.88
2188;BME280;1100;52.014;8.540;2023-08-30T07:44:51;99273.81;;;14.81;82.88
2188;BME280;1100;52.014;8.540;2023-08-30T07:47:17;99270.53;;;15.04;83.01
2188;BME280;1100;52.014;8.540;2023-08-30T07:49:42;99263.59;;;15.20;82.64
2188;BME280;1100;52.014;8.540;2023-08-30T07:52:08;99272.72;;;15.41;82.55
2188;BME280;1100;52.014;8.540;2023-08-30T07:54:37;99268.81;;;15.60;81.88
2188;BME280;1100;52.014;8.540;2023-08-30T07:57:03;99273.50;;;15.68;81.83
2188;BME280;1100;52.014;8.540;2023-08-30T07:59:29;99266.94;;;15.77;82.00
2188;BME280;1100;52.014;8.540;2023-08-30T08:01:54;99274.88;;;15.85;81.77
2188;BME280;1100;52.014;8.540;2023-08-30T08:04:20;99263.97;;;15.87;81.49
2188;BME280;1100;52.014;8.540;2023-08-30T08:06:46;99259.38;;;15.89;81.47
2188;BME280;1100;52.014;8.540;2023-08-30T08:09:11;99266.25;;;15.88;81.50
2188;BME280;1100;52.014;8.540;2023-08-30T08:11:36;99263.19;;;15.86;81.68
2188;BME280;1100;52.014;8.540;2023-08-30T08:14:02;99267.22;;;15.79;81.26
2188;BME280;1100;52.014;8.540;2023-08-30T08:16:29;99264.94;;;15.84;81.38
2188;BME280;1100;52.014;8.540;2023-08-30T08:18:54;99272.66;;;15.89;81.48
2188;BME280;1100;52.014;8.540;2023-08-30T08:21:19;99273.25;;;15.99;81.56
2188;BME280;1100;52.014;8.540;2023-08-30T08:23:44;99275.16;;;16.13;81.63
2188;BME280;1100;52.014;8.540;2023-08-30T08:26:12;99274.50;;;16.30;81.31
2188;BME280;1100;52.014;8.540;2023-08-30T08:28:37;99278.94;;;16.48;81.30
2188;BME280;1100;52.014;8.540;2023-08-30T08:31:02;99270.91;;;16.73;80.92
2188;BME280;1100;52.014;8.540;2023-08-30T08:33:28;99275.31;;;16.86;80.70
2188;BME280;1100;52.014;8.540;2023-08-30T08:35:54;99269.00;;;17.02;80.72
2188;BME280;1100;52.014;8.540;2023-08-30T08:38:19;99267.28;;;17.11;80.42
2188;BME280;1100;52.014;8.540;2023-08-30T08:40:45;99266.75;;;17.12;80.19
2188;BME280;1100;52.014;8.540;2023-08-30T08:43:10;99269.84;;;17.26;80.52
2188;BME280;1100;52.014;8.540;2023-08-30T08:45:39;99263.81;;;17.45;80.08
2188;BME280;1100;52.014;8.540;2023-08-30T08:48:05;99273.28;;;17.64;80.03
2188;BME280;1100;52.014;8.540;2023-08-30T08:50:32;99272.78;;;17.77;79.43
2188;BME280;1100;52.014;8.540;2023-08-30T08:52:57;99264.56;;;17.62;78.23
2188;BME280;1100;52.014;8.540;2023-08-30T08:55:24;99261.00;;;17.62;79.22
2188;BME280;1100;52.014;8.540;2023-08-30T08:57:53;99263.06;;;17.78;79.55
2188;BME280;1100;52.014;8.540;2023-08-30T09:00:18;99266.13;;;17.80;79.21
2188;BME280;1100;52.014;8.540;2023-08-30T09:02:44;99260.50;;;17.80;79.42
2188;BME280;1100;52.014;8.540;2023-08-30T09:05:11;99263.06;;;17.78;79.72
2188;BME280;1100;52.014;8.540;2023-08-30T09:07:37;99258.97;;;17.68;79.20
2188;BME280;1100;52.014;8.540;2023-08-30T09:10:03;99265.59;;;17.59;79.18
2188;BME280;1100;52.014;8.540;2023-08-30T09:12:32;99257.94;;;17.54;79.58
2188;BME280;1100;52.014;8.540;2023-08-30T09:14:58;99251.53;;;17.53;79.49
2188;BME280;1100;52.014;8.540;2023-08-30T09:17:34;99254.09;;;17.51;79.36
2188;BME280;1100;52.014;8.540;2023-08-30T09:20:06;99249.75;;;17.50;79.20
2188;BME280;1100;52.014;8.540;2023-08-30T09:22:41;99261.75;;;17.51;79.34
2188;BME280;1100;52.014;8.540;2023-08-30T09:25:11;99253.09;;;17.60;79.37
2188;BME280;1100;52.014;8.540;2023-08-30T09:27:47;99247.47;;;17.72;79.70
2188;BME280;1100;52.014;8.540;2023-08-30T09:30:12;99254.38;;;17.88;79.63
2188;BME280;1100;52.014;8.540;2023-08-30T09:32:39;99239.56;;;17.93;79.11
2188;BME280;1100;52.014;8.540;2023-08-30T09:35:06;99245.16;;;18.04;79.30
2188;BME280;1100;52.014;8.540;2023-08-30T09:37:31;99245.16;;;18.04;78.87
2188;BME280;1100;52.014;8.540;2023-08-30T09:39:56;99238.03;;;18.15;78.39
2188;BME280;1100;52.014;8.540;2023-08-30T09:42:22;99236.47;;;18.25;78.25
2188;BME280;1100;52.014;8.540;2023-08-30T09:44:47;99235.13;;;18.49;77.96
2188;BME280;1100;52.014;8.540;2023-08-30T09:47:13;99240.69;;;18.72;77.40
2188;BME280;1100;52.014;8.540;2023-08-30T09:49:45;99242.16;;;18.90;77.47
2188;BME280;1100;52.014;8.540;2023-08-30T09:52:12;99232.06;;;19.18;77.00
2188;BME280;1100;52.014;8.540;2023-08-30T09:54:41;99231.69;;;19.39;76.59
2188;BME280;1100;52.014;8.540;2023-08-30T09:57:09;99222.19;;;19.42;74.52
2188;BME280;1100;52.014;8.540;2023-08-30T09:59:35;99228.56;;;19.42;75.27
2188;BME280;1100;52.014;8.540;2023-08-30T10:02:01;99211.19;;;19.69;75.74
2188;BME280;1100;52.014;8.540;2023-08-30T10:04:27;99223.75;;;20.04;75.36
2188;BME280;1100;52.014;8.540;2023-08-30T10:06:53;99225.25;;;20.06;74.44
2188;BME280;1100;52.014;8.540;2023-08-30T10:09:21;99227.28;;;20.11;74.00
2188;BME280;1100;52.014;8.540;2023-08-30T10:11:47;99222.63;;;20.13;73.62
2188;BME280;1100;52.014;8.540;2023-08-30T10:14:13;99207.75;;;20.38;71.94
2188;BME280;1100;52.014;8.540;2023-08-30T10:16:48;99218.00;;;20.41;71.47
2188;BME280;1100;52.014;8.540;2023-08-30T10:19:16;99203.47;;;20.31;72.10
2188;BME280;1100;52.014;8.540;2023-08-30T10:21:44;99205.81;;;20.02;72.37
2188;BME280;1100;52.014;8.540;2023-08-30T10:24:12;99208.69;;;19.65;72.69
2188;BME280;1100;52.014;8.540;2023-08-30T10:26:38;99198.94;;;19.30;72.54
2188;BME280;1100;52.014;8.540;2023-08-30T10:29:05;99198.84;;;18.99;72.99
2188;BME280;1100;52.014;8.540;2023-08-30T10:31:31;99196.69;;;18.69;73.27
2188;BME280;1100;52.014;8.540;2023-08-30T10:33:57;99198.34;;;18.30;73.16
2188;BME280;1100;52.014;8.540;2023-08-30T10:36:26;99194.81;;;18.01;73.60
2188;BME280;1100;52.014;8.540;2023-08-30T10:38:54;99199.94;;;17.79;73.96
2188;BME280;1100;52.014;8.540;2023-08-30T10:41:21;99195.13;;;17.57;73.38
2188;BME280;1100;52.014;8.540;2023-08-30T10:43:50;99191.28;;;17.43;73.55
2188;BME280;1100;52.014;8.540;2023-08-30T10:46:34;99188.44;;;17.31;73.87
2188;BME280;1100;52.014;8.540;2023-08-30T10:49:13;99182.56;;;17.24;74.10
2188;BME280;1100;52.014;8.540;2023-08-30T10:51:40;99181.00;;;17.17;74.39
2188;BME280;1100;52.014;8.540;2023-08-30T10:54:15;99180.25;;;17.11;74.33
2188;BME280;1100;52.014;8.540;2023-08-30T10:59:20;99180.75;;;17.15;74.29
2188;BME280;1100;52.014;8.540;2023-08-30T11:01:47;99172.84;;;17.19;74.26
2188;BME280;1100;52.014;8.540;2023-08-30T11:04:14;99165.97;;;17.20;74.05
2188;BME280;1100;52.014;8.540;2023-08-30T11:06:42;99170.06;;;17.19;74.48
2188;BME280;1100;52.014;8.540;2023-08-30T11:09:08;99163.91;;;17.15;74.39
2188;BME280;1100;52.014;8.540;2023-08-30T11:11:36;99166.19;;;17.11;74.54
2188;BME280;1100;52.014;8.540;2023-08-30T11:14:07;99160.06;;;17.06;74.61
2188;BME280;1100;52.014;8.540;2023-08-30T11:16:34;99162.31;;;17.02;74.69
2188;BME280;1100;52.014;8.540;2023-08-30T11:19:01;99162.06;;;16.94;74.87
2188;BME280;1100;52.014;8.540;2023-08-30T11:21:29;99163.84;;;16.92;74.84
2188;BME280;1100;52.014;8.540;2023-08-30T11:23:55;99167.16;;;16.85;74.83
2188;BME280;1100;52.014;8.540;2023-08-30T11:26:20;99163.56;;;16.84;75.16
2188;BME280;1100;52.014;8.540;2023-08-30T11:28:46;99154.41;;;16.89;74.96
2188;BME280;1100;52.014;8.540;2023-08-30T11:31:24;99156.97;;;16.99;74.90
2188;BME280;1100;52.014;8.540;2023-08-30T11:33:56;99150.38;;;17.08;74.63
2188;BME280;1100;52.014;8.540;2023-08-30T11:36:23;99156.25;;;17.21;74.50
2188;BME280;1100;52.014;8.540;2023-08-30T11:38:58;99147.59;;;17.42;74.72
2188;BME280;1100;52.014;8.540;2023-08-30T11:41:24;99147.34;;;17.63;74.91
2188;BME280;1100;52.014;8.540;2023-08-30T11:43:51;99144.00;;;17.81;74.63
2188;BME280;1100;52.014;8.540;2023-08-30T11:46:17;99138.09;;;17.91;74.53
2188;BME280;1100;52.014;8.540;2023-08-30T11:48:43;99139.09;;;18.05;74.39
2188;BME280;1100;52.014;8.540;2023-08-30T11:51:09;99127.81;;;18.22;74.19
2188;BME280;1100;52.014;8.540;2023-08-30T11:53:36;99120.31;;;18.48;74.09
2188;BME280;1100;52.014;8.540;2023-08-30T11:56:02;99119.19;;;18.68;73.76
2188;BME280;1100;52.014;8.540;2023-08-30T11:58:32;99107.56;;;18.83;73.65
2188;BME280;1100;52.014;8.540;2023-08-30T12:00:57;99109.63;;;18.83;72.68
2188;BME280;1100;52.014;8.540;2023-08-30T12:03:22;99104.28;;;18.79;72.65
2188;BME280;1100;52.014;8.540;2023-08-30T12:05:49;99105.84;;;18.74;72.66
2188;BME280;1100;52.014;8.540;2023-08-30T12:08:24;99118.66;;;18.64;72.56
2188;BME280;1100;52.014;8.540;2023-08-30T12:10:50;99114.91;;;18.50;72.61
2188;BME280;1100;52.014;8.540;2023-08-30T12:13:20;99108.31;;;18.36;71.48
2188;BME280;1100;52.014;8.540;2023-08-30T12:15:45;99110.19;;;18.16;71.79
2188;BME280;1100;52.014;8.540;2023-08-30T12:18:11;99109.97;;;18.02;71.67
2188;BME280;1100;52.014;8.540;2023-08-30T12:20:36;99106.16;;;17.88;71.94
2188;BME280;1100;52.014;8.540;2023-08-30T12:23:01;99108.47;;;17.78;72.18
2188;BME280;1100;52.014;8.540;2023-08-30T12:25:28;99099.81;;;17.71;72.39
2188;BME280;1100;52.014;8.540;2023-08-30T12:27:55;99103.38;;;17.65;72.57
2188;BME280;1100;52.014;8.540;2023-08-30T12:30:21;99107.75;;;17.61;72.57
2188;BME280;1100;52.014;8.540;2023-08-30T12:32:47;99113.63;;;17.51;72.55
2188;BME280;1100;52.014;8.540;2023-08-30T12:35:13;99113.13;;;17.41;72.40
2188;BME280;1100;52.014;8.540;2023-08-30T12:37:38;99118.75;;;17.30;72.49
2188;BME280;1100;52.014;8.540;2023-08-30T12:40:04;99124.09;;;17.16;72.51
2188;BME280;1100;52.014;8.540;2023-08-30T12:42:32;99119.72;;;16.98;72.57
2188;BME280;1100;52.014;8.540;2023-08-30T12:44:57;99111.25;;;16.87;72.94
2188;BME280;1100;52.014;8.540;2023-08-30T12:47:22;99121.72;;;16.80;72.44
2188;BME280;1100;52.014;8.540;2023-08-30T12:49:48;99127.81;;;16.67;72.63
2188;BME280;1100;52.014;8.540;2023-08-30T12:52:13;99123.94;;;16.53;72.54
2188;BME280;1100;52.014;8.540;2023-08-30T12:54:38;99127.44;;;16.37;72.33
2188;BME280;1100;52.014;8.540;2023-08-30T12:57:04;99135.03;;;16.19;72.43
2188;BME280;1100;52.014;8.540;2023-08-30T12:59:29;99127.50;;;15.99;72.67
2188;BME280;1100;52.014;8.540;2023-08-30T13:01:54;99121.56;;;15.85;73.18
2188;BME280;1100;52.014;8.540;2023-08-30T13:04:20;99131.97;;;15.79;73.42
2188;BME280;1100;52.014;8.540;2023-08-30T13:06:45;99122.25;;;15.74;73.69
2188;BME280;1100;52.014;8.540;2023-08-30T13:09:10;99127.34;;;15.76;73.83
2188;BME280;1100;52.014;8.540;2023-08-30T13:11:35;99121.53;;;15.79;74.10
2188;BME280;1100;52.014;8.540;2023-08-30T13:14:01;99130.19;;;15.81;73.60
2188;BME280;1100;52.014;8.540;2023-08-30T13:16:26;99125.59;;;15.78;74.04
2188;BME280;1100;52.014;8.540;2023-08-30T13:18:52;99129.84;;;15.68;73.87
2188;BME280;1100;52.014;8.540;2023-08-30T13:21:17;99136.84;;;15.52;74.01
2188;BME280;1100;52.014;8.540;2023-08-30T13:23:42;99131.94;;;15.41;74.43